createdAt,value
2022-07-26T00:00:28.341Z,73.21
2022-07-26T00:01:32.206Z,71.70
2022-07-26T00:02:28.929Z,72.30
2022-07-26T00:03:29.211Z,72.80
2022-07-26T00:04:29.480Z,72.80
2022-07-26T00:05:29.727Z,72.71
2022-07-26T00:06:30.035Z,73.41
2022-07-26T00:07:36.003Z,72.50
2022-07-26T00:08:31.606Z,71.80
2022-07-26T00:09:30.907Z,72.10
2022-07-26T00:10:31.206Z,72.71
2022-07-26T00:11:31.502Z,72.20
2022-07-26T00:12:31.895Z,72.00
2022-07-26T00:13:32.152Z,72.30
2022-07-26T00:14:32.386Z,72.71
2022-07-26T00:15:32.692Z,72.40
2022-07-26T00:16:33.105Z,72.90
2022-07-26T00:17:33.248Z,72.60
2022-07-26T00:18:33.561Z,73.04
2022-07-26T00:19:33.810Z,73.44
2022-07-26T00:20:34.112Z,72.94
2022-07-26T00:21:34.413Z,73.04
2022-07-26T00:22:34.698Z,73.04
2022-07-26T00:23:35.023Z,73.14
2022-07-26T00:24:35.683Z,73.24
2022-07-26T00:25:35.616Z,73.14
2022-07-26T00:26:35.912Z,73.74
2022-07-26T00:27:36.222Z,74.08
2022-07-26T00:28:36.545Z,74.08
2022-07-26T00:29:36.804Z,74.88
2022-07-26T00:30:37.122Z,74.38
2022-07-26T00:31:37.469Z,74.48
2022-07-26T00:32:37.736Z,74.58
2022-07-26T00:33:38.053Z,74.38
2022-07-26T00:34:38.291Z,74.58
2022-07-26T00:35:38.671Z,74.78
2022-07-26T00:36:41.815Z,75.68
2022-07-26T00:37:39.283Z,74.68
2022-07-26T00:38:39.596Z,74.88
2022-07-26T00:39:39.854Z,74.88
2022-07-26T00:40:40.155Z,75.29
2022-07-26T00:41:40.451Z,75.38
2022-07-26T00:42:40.764Z,75.82
2022-07-26T00:43:41.086Z,76.73
2022-07-26T00:44:41.345Z,76.03
2022-07-26T00:45:41.729Z,75.52
2022-07-26T00:46:42.019Z,76.12
2022-07-26T00:47:42.268Z,76.43
2022-07-26T00:48:42.615Z,76.12
2022-07-26T00:49:42.878Z,76.63
2022-07-26T00:50:43.152Z,76.53
2022-07-26T00:51:46.431Z,77.27
2022-07-26T00:52:43.799Z,77.87
2022-07-26T00:53:44.105Z,77.87
2022-07-26T00:54:44.377Z,77.77
2022-07-26T00:55:44.685Z,77.87
2022-07-26T00:56:44.987Z,77.87
2022-07-26T00:57:45.291Z,78.27
2022-07-26T00:58:45.615Z,78.88
2022-07-26T00:59:45.865Z,79.38
2022-07-26T01:00:46.256Z,78.27
2022-07-26T01:01:46.595Z,78.71
2022-07-26T01:02:46.676Z,78.91
2022-07-26T01:03:46.974Z,79.11
2022-07-26T01:04:47.238Z,79.32
2022-07-26T01:05:47.554Z,79.42
2022-07-26T01:06:47.806Z,79.11
2022-07-26T01:07:48.115Z,79.52
2022-07-26T01:08:48.420Z,79.52
2022-07-26T01:09:48.710Z,79.22
2022-07-26T01:10:48.996Z,80.32
2022-07-26T01:11:49.294Z,78.81
2022-07-26T01:12:49.598Z,79.52
2022-07-26T01:13:49.957Z,79.42
2022-07-26T01:14:50.209Z,79.76
2022-07-26T01:15:50.573Z,79.05
2022-07-26T01:16:50.702Z,80.77
2022-07-26T01:17:50.970Z,79.86
2022-07-26T01:18:51.290Z,79.36
2022-07-26T01:19:51.553Z,81.17
2022-07-26T01:20:51.808Z,80.26
2022-07-26T01:21:52.108Z,80.77
2022-07-26T01:22:52.417Z,80.16
2022-07-26T01:23:52.719Z,79.56
2022-07-26T01:24:53.007Z,80.87
2022-07-26T01:25:53.336Z,80.46
2022-07-26T01:26:53.610Z,81.41
2022-07-26T01:27:53.930Z,80.50
2022-07-26T01:28:54.189Z,80.50
2022-07-26T01:29:54.447Z,81.21
2022-07-26T01:30:54.758Z,80.80
2022-07-26T01:31:55.034Z,81.10
2022-07-26T01:32:55.325Z,81.61
2022-07-26T01:33:55.630Z,81.41
2022-07-26T01:34:55.930Z,81.10
2022-07-26T01:35:56.233Z,81.30
2022-07-26T01:36:56.519Z,81.30
2022-07-26T01:37:56.821Z,80.70
2022-07-26T01:38:57.130Z,80.80
2022-07-26T01:39:57.413Z,81.41
2022-07-26T01:40:57.783Z,81.71
2022-07-26T01:41:58.022Z,82.25
2022-07-26T01:42:58.341Z,82.56
2022-07-26T01:43:58.641Z,82.56
2022-07-26T01:44:58.892Z,82.25
2022-07-26T01:45:59.225Z,82.76
2022-07-26T01:46:59.495Z,81.85
2022-07-26T01:47:59.797Z,81.85
2022-07-26T01:49:00.225Z,82.56
2022-07-26T01:50:00.393Z,82.86
